Time;durP1;ratioP1;P1;durP2;ratioP2;P2;SDS_P1;SDS_P2;PMS_P1;PMS_P2;Temp;Humidity;BMP_temperature;BMP_pressure;BME280_temperature;BME280_humidity;BME280_pressure;Samples;Min_cycle;Max_cycle;Signal;HPM_P1;HPM_P2
2022/10/05 00:01:20;;;;;;;6.72;5.75;;;;;;;12.49;86.54;99217.53;5016913;28;102924;-69
2022/10/05 00:03:48;;;;;;;5.72;5.00;;;;;;;12.58;88.84;99221.31;5019212;27;102902;-70
2022/10/05 00:06:16;;;;;;;6.03;5.43;;;;;;;12.68;87.31;99222.38;5019597;28;103843;-69
2022/10/05 00:08:44;;;;;;;5.13;4.63;;;;;;;12.82;86.76;99219.56;5019457;28;103491;-69
2022/10/05 00:11:13;;;;;;;5.17;4.67;;;;;;;12.80;84.78;99214.34;4999304;28;102742;-70
2022/10/05 00:13:42;;;;;;;4.55;4.15;;;;;;;12.83;84.40;99215.09;5000657;28;104276;-70
2022/10/05 00:16:15;;;;;;;7.15;5.70;;;;;;;12.73;83.23;99212.25;4999245;28;104376;-70
2022/10/05 00:18:47;;;;;;;6.40;5.80;;;;;;;12.71;82.84;99216.84;5017997;28;103168;-70
2022/10/05 00:21:20;;;;;;;5.70;5.10;;;;;;;12.62;83.35;99217.50;5014806;27;102653;-69
2022/10/05 00:23:49;;;;;;;7.80;6.13;;;;;;;12.58;82.65;99218.66;5017751;28;103506;-70
2022/10/05 00:26:21;;;;;;;6.10;5.50;;;;;;;12.62;82.95;99209.56;5014491;27;103153;-69
2022/10/05 00:28:53;;;;;;;4.57;4.18;;;;;;;12.67;82.51;99213.56;5011404;27;103380;-70
2022/10/05 00:31:23;;;;;;;4.43;4.03;;;;;;;12.68;82.41;99206.47;5026917;27;102929;-69
2022/10/05 00:33:53;;;;;;;7.63;5.45;;;;;;;12.45;81.23;99204.63;5021202;27;103338;-69
2022/10/05 00:36:21;;;;;;;6.15;5.60;;;;;;;12.14;84.37;99212.09;5015082;27;103293;-69
2022/10/05 00:38:49;;;;;;;6.13;5.53;;;;;;;12.11;84.77;99200.88;4995144;27;104287;-70
2022/10/05 00:41:23;;;;;;;8.73;7.13;;;;;;;11.85;87.82;99205.34;4991860;27;102772;-70
2022/10/05 00:44:20;;;;;;;6.10;5.50;;;;;;;11.91;87.49;99212.88;4992601;27;102857;-70
2022/10/05 00:46:56;;;;;;;5.88;5.32;;;;;;;12.13;87.08;99205.09;4992883;27;105596;-69
2022/10/05 00:49:40;;;;;;;7.88;5.90;;;;;;;12.31;86.08;99207.41;5009593;27;103390;-70
2022/10/05 00:52:20;;;;;;;5.60;5.10;;;;;;;12.41;85.43;99211.06;4992872;27;103170;-70
2022/10/05 00:54:56;;;;;;;8.18;6.13;;;;;;;12.36;84.86;99200.81;5011131;27;102758;-69
2022/10/05 00:57:34;;;;;;;7.87;7.00;;;;;;;11.80;88.33;99199.53;5012384;27;103289;-70
2022/10/05 01:00:08;;;;;;;8.10;7.20;;;;;;;11.27;91.55;99203.16;4992652;27;104325;-69
2022/10/05 01:02:49;;;;;;;6.70;6.10;;;;;;;11.78;92.47;99206.75;5006868;27;103165;-70
2022/10/05 01:05:29;;;;;;;7.63;6.93;;;;;;;11.88;89.24;99205.13;4991952;27;103965;-69
2022/10/05 01:08:07;;;;;;;7.53;6.73;;;;;;;11.96;88.25;99212.53;5018682;27;104136;-69
2022/10/05 01:10:44;;;;;;;7.67;6.93;;;;;;;12.11;87.79;99207.03;5010160;27;103180;-69
2022/10/05 01:13:24;;;;;;;7.63;5.97;;;;;;;12.20;86.48;99206.38;5008568;27;103095;-69
2022/10/05 01:16:03;;;;;;;6.05;5.45;;;;;;;12.34;86.57;99197.44;5010466;27;103822;-69
2022/10/05 01:18:38;;;;;;;6.10;5.50;;;;;;;12.44;85.28;99197.59;5008449;27;103432;-70
2022/10/05 01:21:13;;;;;;;5.63;5.13;;;;;;;12.49;85.64;99200.81;5011343;27;102975;-69
2022/10/05 01:24:22;;;;;;;7.47;6.70;;;;;;;12.42;84.44;99196.88;5028588;27;102733;-69
2022/10/05 01:27:16;;;;;;;7.55;6.85;;;;;;;12.17;86.81;99198.66;4964242;27;104427;-69
2022/10/05 01:29:54;;;;;;;6.13;5.53;;;;;;;12.29;86.07;99199.59;4993710;27;103286;-69
2022/10/05 01:32:28;;;;;;;7.78;6.32;;;;;;;12.31;84.95;99194.16;5008705;27;104100;-70
2022/10/05 01:35:05;;;;;;;7.88;7.07;;;;;;;11.78;86.62;99201.44;5013868;27;102770;-70
2022/10/05 01:37:41;;;;;;;6.97;6.05;;;;;;;11.93;86.58;99200.34;5011407;27;104099;-70
2022/10/05 01:40:18;;;;;;;7.78;6.65;;;;;;;11.88;87.06;99199.84;5010522;27;104256;-70
2022/10/05 01:42:59;;;;;;;8.30;7.50;;;;;;;11.01;89.64;99196.09;4990844;27;104100;-69
2022/10/05 01:45:38;;;;;;;7.97;7.13;;;;;;;11.26;92.54;99190.03;4991779;27;102871;-69
2022/10/05 01:48:13;;;;;;;8.50;7.68;;;;;;;11.24;92.63;99186.63;4991933;27;104496;-70
2022/10/05 01:50:50;;;;;;;6.70;6.10;;;;;;;11.69;90.04;99190.59;4992022;27;104306;-69
2022/10/05 01:53:34;;;;;;;8.63;7.15;;;;;;;11.54;89.34;99187.19;4991705;27;104187;-70
2022/10/05 01:56:14;;;;;;;5.85;5.30;;;;;;;11.91;88.77;99181.09;4994172;27;104260;-70
2022/10/05 01:58:51;;;;;;;6.15;5.63;;;;;;;12.01;88.16;99168.88;4993439;27;102868;-69
2022/10/05 02:01:30;;;;;;;6.88;6.13;;;;;;;11.97;86.80;99183.31;5016332;27;103258;-69
2022/10/05 02:04:05;;;;;;;6.85;6.25;;;;;;;11.91;87.92;99164.34;4991722;27;103496;-69
2022/10/05 02:06:40;;;;;;;5.75;5.25;;;;;;;12.03;87.05;99176.72;4991139;27;105806;-69
2022/10/05 02:09:15;;;;;;;7.32;6.30;;;;;;;11.86;86.98;99180.56;5030736;27;102812;-69
2022/10/05 02:11:47;;;;;;;7.88;6.70;;;;;;;11.83;88.20;99175.50;4996805;28;104148;-70
2022/10/05 02:14:19;;;;;;;6.50;5.90;;;;;;;11.79;88.43;99174.00;5001471;27;104721;-70
2022/10/05 02:16:51;;;;;;;8.23;7.32;;;;;;;11.37;90.25;99176.91;4993495;27;102980;-69
2022/10/05 02:19:23;;;;;;;6.13;5.53;;;;;;;11.70;90.09;99169.38;5007914;27;103212;-69
2022/10/05 02:21:56;;;;;;;8.07;6.87;;;;;;;11.54;88.62;99168.66;4992624;28;103306;-69
2022/10/05 02:24:30;;;;;;;6.47;5.70;;;;;;;11.77;88.80;99160.03;4991564;27;104660;-69
2022/10/05 02:26:58;;;;;;;7.57;6.20;;;;;;;11.82;87.53;99157.91;4992896;27;103568;-70
2022/10/05 02:29:31;;;;;;;8.10;6.43;;;;;;;11.71;88.55;99163.09;5011203;27;102997;-69
2022/10/05 02:32:05;;;;;;;9.32;7.03;;;;;;;11.57;88.37;99158.72;4990035;27;106038;-70
2022/10/05 02:34:38;;;;;;;5.53;5.03;;;;;;;11.83;88.17;99153.47;4991445;27;104318;-69
2022/10/05 02:37:29;;;;;;;9.18;7.18;;;;;;;11.63;87.30;99146.88;4997656;27;102863;-70
2022/10/05 02:40:16;;;;;;;6.63;5.78;;;;;;;11.76;87.07;99152.22;5011573;27;103638;-69
2022/10/05 02:42:55;;;;;;;6.30;5.70;;;;;;;11.74;86.67;99148.81;4991121;27;104940;-69
2022/10/05 02:45:37;;;;;;;5.22;4.72;;;;;;;11.77;86.82;99154.72;4991715;27;104496;-69
2022/10/05 02:48:15;;;;;;;7.23;6.53;;;;;;;11.50;88.00;99161.91;5017917;27;106979;-70
2022/10/05 02:50:51;;;;;;;6.85;6.15;;;;;;;11.56;87.57;99164.97;5025167;27;103857;-69
2022/10/05 02:53:25;;;;;;;7.88;6.60;;;;;;;11.40;88.00;99166.13;4992236;27;104120;-69
2022/10/05 02:56:05;;;;;;;6.00;5.40;;;;;;;11.64;88.23;99172.41;4991533;27;105973;-69
2022/10/05 02:58:41;;;;;;;6.85;6.20;;;;;;;11.34;90.14;99171.88;4989624;27;103317;-70
2022/10/05 03:01:16;;;;;;;6.65;5.88;;;;;;;11.47;89.08;99170.06;4993056;27;103300;-70
2022/10/05 03:03:59;;;;;;;9.30;7.07;;;;;;;10.98;90.90;99175.16;4991114;27;103295;-69
2022/10/05 03:06:37;;;;;;;7.97;7.18;;;;;;;10.89;91.07;99181.91;4996460;27;104702;-69
2022/10/05 03:09:07;;;;;;;9.63;7.72;;;;;;;10.30;96.15;99177.03;5010855;27;102677;-69
2022/10/05 03:11:44;;;;;;;8.67;6.97;;;;;;;10.67;95.42;99171.03;4990656;27;104614;-69
2022/10/05 03:14:18;;;;;;;5.88;5.28;;;;;;;11.15;92.56;99169.59;4992818;27;104212;-70
2022/10/05 03:16:57;;;;;;;9.10;6.40;;;;;;;11.09;90.17;99172.63;5016714;27;105115;-69
2022/10/05 03:20:02;;;;;;;9.02;7.88;;;;;;;10.85;90.44;99169.84;5010604;27;104197;-69
2022/10/05 03:22:44;;;;;;;9.18;7.30;;;;;;;10.93;90.65;99167.53;5017014;27;103952;-69
2022/10/05 03:25:30;;;;;;;8.55;7.50;;;;;;;10.82;90.45;99164.75;4994018;27;104397;-69
2022/10/05 03:28:06;;;;;;;7.68;6.90;;;;;;;10.68;90.89;99164.81;4996426;27;104563;-70
2022/10/05 03:30:44;;;;;;;8.33;6.57;;;;;;;10.99;89.67;99155.72;4994470;27;102902;-69
2022/10/05 03:33:21;;;;;;;5.50;5.00;;;;;;;11.29;88.38;99151.00;4996246;27;103331;-70
2022/10/05 03:35:58;;;;;;;6.30;5.70;;;;;;;11.21;87.38;99149.81;4997735;27;104894;-69
2022/10/05 03:38:39;;;;;;;6.82;6.15;;;;;;;11.10;87.14;99147.06;4995398;27;105408;-69
2022/10/05 03:41:15;;;;;;;8.27;7.38;;;;;;;10.37;88.48;99143.97;4996918;27;102934;-70
2022/10/05 03:43:58;;;;;;;8.27;7.45;;;;;;;10.47;90.22;99137.13;5012168;27;102750;-69
2022/10/05 03:46:38;;;;;;;9.10;7.80;;;;;;;10.23;90.21;99136.09;4994457;27;103083;-69
2022/10/05 03:49:14;;;;;;;9.90;7.90;;;;;;;10.09;91.13;99142.22;5011495;27;105175;-70
2022/10/05 03:51:50;;;;;;;8.10;7.10;;;;;;;10.23;91.10;99134.31;4991962;27;103185;-71
2022/10/05 03:54:24;;;;;;;7.20;6.40;;;;;;;10.55;89.91;99124.31;5023412;27;104409;-70
2022/10/05 03:56:55;;;;;;;9.32;7.40;;;;;;;10.18;91.80;99117.91;5009682;27;104216;-70
2022/10/05 03:59:29;;;;;;;10.25;7.05;;;;;;;10.06;92.21;99125.72;4991877;27;104032;-70
2022/10/05 04:02:05;;;;;;;10.23;7.90;;;;;;;9.95;94.09;99128.19;4999411;27;102707;-70
2022/10/05 04:04:37;;;;;;;7.22;6.53;;;;;;;10.22;95.03;99121.19;4995698;27;103493;-70
2022/10/05 04:07:11;;;;;;;10.85;8.38;;;;;;;9.96;97.73;99128.09;4993543;27;105567;-70
2022/10/05 04:09:42;;;;;;;6.80;6.20;;;;;;;10.58;94.52;99126.75;4994713;27;104127;-69
2022/10/05 04:12:23;;;;;;;7.80;7.00;;;;;;;10.74;92.01;99118.63;4999031;27;104257;-70
2022/10/05 04:14:57;;;;;;;7.60;6.47;;;;;;;10.85;90.54;99119.63;4992994;27;104617;-70
2022/10/05 04:17:33;;;;;;;9.90;8.20;;;;;;;10.01;94.61;99123.38;4990529;27;104071;-69
2022/10/05 04:20:06;;;;;;;9.73;8.02;;;;;;;9.83;96.18;99130.66;5009273;27;104997;-69
2022/10/05 04:22:39;;;;;;;8.25;7.45;;;;;;;9.84;96.35;99127.09;4977706;27;103206;-69
2022/10/05 04:25:16;;;;;;;11.30;8.33;;;;;;;9.68;97.79;99120.22;5002262;27;104781;-69
2022/10/05 04:27:50;;;;;;;8.15;7.32;;;;;;;10.27;94.96;99117.28;4983719;27;104174;-69
2022/10/05 04:30:21;;;;;;;9.27;7.28;;;;;;;10.19;94.57;99121.41;4984814;27;103418;-70
2022/10/05 04:32:53;;;;;;;12.43;7.80;;;;;;;9.99;94.78;99119.16;4989346;28;103354;-70
2022/10/05 04:35:48;;;;;;;9.80;8.00;;;;;;;9.78;96.28;99121.31;5019999;27;104039;-70
2022/10/05 04:38:28;;;;;;;9.20;8.25;;;;;;;9.76;97.07;99113.53;4984772;27;104301;-70
2022/10/05 04:41:14;;;;;;;8.20;7.40;;;;;;;10.24;96.71;99114.88;4981759;27;105254;-70
2022/10/05 04:43:53;;;;;;;7.57;6.72;;;;;;;10.27;95.60;99108.56;5016107;27;103145;-70
2022/10/05 04:46:36;;;;;;;8.48;6.60;;;;;;;10.68;93.03;99119.91;5003813;27;104124;-70
2022/10/05 04:49:17;;;;;;;7.85;6.80;;;;;;;10.89;91.25;99121.09;4983155;27;106226;-69
2022/10/05 04:51:59;;;;;;;7.88;6.50;;;;;;;10.98;90.63;99125.78;5016906;27;103231;-70
2022/10/05 04:54:43;;;;;;;10.23;8.07;;;;;;;10.69;91.65;99124.25;4986558;27;104568;-69
2022/10/05 04:57:16;;;;;;;6.80;6.18;;;;;;;10.91;91.65;99121.88;4987342;27;103469;-71
2022/10/05 05:00:03;;;;;;;10.35;8.48;;;;;;;10.81;91.68;99133.13;4985021;27;104496;-70
2022/10/05 05:02:47;;;;;;;7.33;6.63;;;;;;;11.02;90.38;99140.50;4984104;27;104111;-67
2022/10/05 05:05:40;;;;;;;10.73;9.30;;;;;;;10.26;93.17;99154.38;4995352;27;103169;-67
2022/10/05 05:08:46;;;;;;;7.88;7.18;;;;;;;10.63;92.09;99153.72;5014071;27;102915;-74
2022/10/05 05:11:26;;;;;;;7.60;6.80;;;;;;;10.83;92.64;99155.91;5004015;27;103216;-66
2022/10/05 05:14:16;;;;;;;8.90;7.50;;;;;;;10.97;89.67;99147.91;4980619;27;104508;-66
2022/10/05 05:16:49;;;;;;;6.75;5.80;;;;;;;11.11;89.82;99154.03;4983931;27;104520;-67
2022/10/05 05:19:36;;;;;;;8.25;7.18;;;;;;;11.07;87.94;99156.91;4987641;27;103057;-66
2022/10/05 05:22:08;;;;;;;8.18;6.63;;;;;;;11.14;88.44;99153.84;5003626;27;103207;-67
2022/10/05 05:24:54;;;;;;;7.50;6.43;;;;;;;11.31;87.99;99161.47;4996704;27;105418;-67
2022/10/05 05:27:42;;;;;;;6.30;5.70;;;;;;;11.31;87.77;99164.13;4990717;27;103399;-73
2022/10/05 05:30:21;;;;;;;6.67;6.07;;;;;;;11.32;87.47;99171.09;5002476;27;103978;-71
2022/10/05 05:33:15;;;;;;;7.22;6.53;;;;;;;11.30;87.17;99165.91;4987257;27;104182;-66
2022/10/05 05:36:16;;;;;;;6.70;5.78;;;;;;;11.45;86.80;99171.97;5025490;27;103419;-66
2022/10/05 05:39:01;;;;;;;5.50;5.00;;;;;;;11.53;85.95;99169.66;4971407;27;103003;-65
2022/10/05 05:41:36;;;;;;;8.75;7.88;;;;;;;11.23;85.39;99177.84;5008316;27;103357;-66
2022/10/05 05:44:17;;;;;;;7.40;6.50;;;;;;;11.28;88.12;99188.13;4979435;28;103992;-65
2022/10/05 05:46:53;;;;;;;6.38;5.72;;;;;;;11.45;86.71;99185.22;5011343;27;103318;-66
2022/10/05 05:49:54;;;;;;;6.78;6.03;;;;;;;11.57;86.06;99187.00;4994758;27;104136;-66
2022/10/05 05:52:30;;;;;;;7.97;6.50;;;;;;;11.59;85.67;99182.47;4995712;27;104365;-66
2022/10/05 05:55:04;;;;;;;10.52;8.50;;;;;;;11.09;86.74;99188.50;5021794;27;103927;-66
2022/10/05 05:57:38;;;;;;;10.60;8.88;;;;;;;10.73;90.51;99189.16;4992033;28;105318;-66
2022/10/05 06:00:20;;;;;;;8.73;7.10;;;;;;;11.16;89.16;99191.59;4999464;28;103700;-65
2022/10/05 06:03:01;;;;;;;6.50;5.68;;;;;;;11.47;87.26;99194.72;4998695;28;103080;-65
2022/10/05 06:05:34;;;;;;;10.85;8.90;;;;;;;11.15;86.56;99198.69;4998057;28;103188;-66
2022/10/05 06:08:10;;;;;;;8.68;7.80;;;;;;;11.05;88.35;99206.41;4998178;28;104853;-66
2022/10/05 06:10:45;;;;;;;9.30;8.10;;;;;;;11.02;89.39;99205.75;5002672;28;102704;-66
2022/10/05 06:13:19;;;;;;;9.98;8.05;;;;;;;10.94;89.56;99205.41;5001254;27;104080;-65
2022/10/05 06:15:54;;;;;;;9.52;7.63;;;;;;;11.00;90.76;99210.28;4998623;28;104233;-66
2022/10/05 06:18:22;;;;;;;11.93;8.50;;;;;;;10.91;91.65;99216.19;5032352;27;105165;-66
2022/10/05 06:20:59;;;;;;;10.65;9.23;;;;;;;10.70;92.71;99215.78;4998234;28;102666;-66
2022/10/05 06:23:39;;;;;;;11.00;9.20;;;;;;;10.38;94.69;99227.56;4999983;28;102788;-65
2022/10/05 06:26:30;;;;;;;9.53;8.20;;;;;;;11.04;93.45;99223.19;4989440;27;105489;-64
2022/10/05 06:29:02;;;;;;;7.32;5.93;;;;;;;11.43;91.22;99230.28;4993353;28;104381;-66
2022/10/05 06:31:54;;;;;;;5.70;5.20;;;;;;;11.69;89.68;99230.28;5000345;28;102913;-65
2022/10/05 06:34:45;;;;;;;5.70;5.20;;;;;;;11.84;88.11;99237.22;5001461;28;103520;-65
2022/10/05 06:37:24;;;;;;;5.35;4.85;;;;;;;11.98;87.02;99237.13;5028236;27;103665;-66
2022/10/05 06:40:08;;;;;;;7.03;6.33;;;;;;;12.17;85.98;99238.38;4997763;28;104749;-66
2022/10/05 06:42:47;;;;;;;11.00;8.80;;;;;;;11.73;86.39;99232.69;4998231;28;103477;-66
2022/10/05 06:45:53;;;;;;;6.88;6.18;;;;;;;12.27;86.11;99238.56;5016316;28;102869;-65
2022/10/05 06:49:05;;;;;;;8.73;7.33;;;;;;;12.48;85.42;99238.84;4986078;27;103214;-65
2022/10/05 06:51:58;;;;;;;10.40;7.57;;;;;;;12.51;84.93;99243.94;5018171;27;103273;-66
2022/10/05 06:54:45;;;;;;;10.40;8.35;;;;;;;12.37;85.33;99249.38;4998253;28;102714;-66
2022/10/05 06:57:35;;;;;;;11.40;8.30;;;;;;;12.61;85.01;99242.31;4995536;28;103742;-65
2022/10/05 07:00:06;;;;;;;8.73;6.55;;;;;;;12.99;84.64;99240.38;4997993;28;105134;-66
2022/10/05 07:02:42;;;;;;;12.48;8.35;;;;;;;13.08;84.24;99231.75;5011895;27;103225;-65
2022/10/05 07:05:42;;;;;;;9.55;7.95;;;;;;;13.16;83.49;99240.03;4995563;28;102689;-66
2022/10/05 07:08:18;;;;;;;8.82;7.43;;;;;;;13.63;82.64;99240.88;5035204;27;102998;-66
2022/10/05 07:10:59;;;;;;;8.35;7.40;;;;;;;13.85;82.29;99241.78;5001647;28;104631;-66
2022/10/05 07:13:55;;;;;;;9.68;8.07;;;;;;;13.59;82.52;99245.56;5000187;28;105677;-66
2022/10/05 07:16:34;;;;;;;11.75;8.50;;;;;;;13.79;82.54;99244.91;4997289;28;103917;-66
2022/10/05 07:19:13;;;;;;;10.40;8.30;;;;;;;13.96;81.85;99240.94;5021566;28;102835;-66
2022/10/05 07:21:51;;;;;;;10.20;7.97;;;;;;;13.94;80.64;99245.53;5001724;28;105061;-66
2022/10/05 07:24:30;;;;;;;11.02;8.32;;;;;;;14.19;81.05;99240.00;4999288;28;103443;-66
2022/10/05 07:27:09;;;;;;;9.85;8.43;;;;;;;13.93;81.79;99244.69;5004391;28;103090;-66
2022/10/05 07:29:47;;;;;;;9.00;8.10;;;;;;;14.43;81.10;99240.75;5002527;28;103812;-66
2022/10/05 07:32:27;;;;;;;9.80;7.50;;;;;;;15.22;77.92;99244.94;4997644;27;103543;-64
2022/10/05 07:35:08;;;;;;;7.13;6.07;;;;;;;15.59;76.38;99238.25;5021724;27;103583;-65
2022/10/05 07:37:56;;;;;;;10.20;7.82;;;;;;;15.64;75.99;99246.69;5001225;28;102649;-66
2022/10/05 07:40:33;;;;;;;8.32;7.53;;;;;;;15.79;72.18;99243.72;5034502;27;104134;-66
2022/10/05 07:43:13;;;;;;;8.38;7.13;;;;;;;15.86;73.79;99247.56;5001954;28;104018;-66
2022/10/05 07:45:47;;;;;;;8.40;7.60;;;;;;;16.43;73.60;99247.00;4996603;28;104529;-67
2022/10/05 07:48:20;;;;;;;9.52;7.57;;;;;;;16.61;72.14;99248.09;5002895;28;102633;-66
2022/10/05 07:50:58;;;;;;;9.15;7.25;;;;;;;16.16;73.88;99258.25;5002093;28;104009;-66
2022/10/05 07:53:35;;;;;;;9.07;7.55;;;;;;;16.46;72.63;99257.41;4999774;28;103312;-66
2022/10/05 07:56:09;;;;;;;8.18;7.15;;;;;;;16.76;72.41;99257.38;5000399;28;103212;-66
2022/10/05 07:58:43;;;;;;;9.05;7.50;;;;;;;16.82;71.27;99259.50;5016988;27;102575;-66
2022/10/05 08:01:18;;;;;;;7.20;6.47;;;;;;;16.94;71.75;99261.09;5016824;27;102751;-66
2022/10/05 08:03:56;;;;;;;8.05;7.20;;;;;;;17.08;70.19;99254.50;5000821;28;105786;-66
2022/10/05 08:06:43;;;;;;;7.20;5.97;;;;;;;17.62;68.42;99249.50;5020122;27;102984;-66
2022/10/05 08:09:26;;;;;;;9.07;6.63;;;;;;;17.18;69.80;99253.53;5020508;28;103428;-66
2022/10/05 08:12:02;;;;;;;7.55;6.47;;;;;;;17.47;68.13;99253.56;5017134;27;103565;-66
2022/10/05 08:14:38;;;;;;;7.13;6.10;;;;;;;17.77;68.75;99257.91;5020543;28;103908;-66
2022/10/05 08:17:18;;;;;;;6.50;5.90;;;;;;;17.42;69.41;99250.47;5020211;27;103125;-66
2022/10/05 08:19:59;;;;;;;7.65;6.30;;;;;;;17.66;68.55;99242.03;5017184;28;102627;-66
2022/10/05 08:22:34;;;;;;;8.32;5.60;;;;;;;18.20;66.19;99247.56;5019923;27;103802;-66
2022/10/05 08:25:09;;;;;;;6.90;6.03;;;;;;;18.21;67.57;99248.41;5017419;28;103956;-66
2022/10/05 08:27:48;;;;;;;8.23;5.83;;;;;;;18.35;65.36;99239.91;5018904;27;103256;-67
2022/10/05 08:30:16;;;;;;;7.47;5.60;;;;;;;18.44;66.31;99250.56;5018187;27;102711;-66
2022/10/05 08:32:51;;;;;;;7.90;5.80;;;;;;;18.63;66.52;99244.31;5017722;27;103707;-66
2022/10/05 08:35:26;;;;;;;7.15;5.63;;;;;;;18.65;65.50;99236.97;5019120;27;105767;-66
2022/10/05 08:37:55;;;;;;;6.80;6.00;;;;;;;18.37;65.15;99237.91;5018410;28;103304;-66
2022/10/05 08:40:50;;;;;;;6.53;5.88;;;;;;;18.79;65.03;99240.97;5019155;28;102664;-67
2022/10/05 08:43:34;;;;;;;8.77;5.80;;;;;;;18.62;64.39;99237.28;5016939;28;104017;-66
2022/10/05 08:46:25;;;;;;;6.88;5.35;;;;;;;19.38;64.85;99229.72;5017536;27;103312;-66
2022/10/05 08:49:29;;;;;;;7.13;5.20;;;;;;;19.62;62.12;99217.41;5017614;27;103207;-66
2022/10/05 08:52:27;;;;;;;5.47;4.95;;;;;;;20.37;60.58;99220.44;5017978;27;102694;-66
2022/10/05 08:55:29;;;;;;;7.50;5.38;;;;;;;20.77;59.85;99234.03;5017162;28;104313;-66
2022/10/05 08:58:37;;;;;;;6.82;5.72;;;;;;;20.17;61.23;99231.38;5000185;28;103841;-67
2022/10/05 09:01:14;;;;;;;7.35;6.20;;;;;;;20.62;60.29;99219.56;5016890;28;103340;-67
2022/10/05 09:04:14;;;;;;;5.85;5.35;;;;;;;20.72;61.65;99217.56;4998862;27;102841;-67
2022/10/05 09:06:57;;;;;;;6.20;5.40;;;;;;;20.90;60.30;99214.78;5005496;27;103087;-67
2022/10/05 09:09:56;;;;;;;5.72;5.15;;;;;;;21.21;59.04;99218.56;5020905;27;104139;-67
2022/10/05 09:12:51;;;;;;;5.70;5.20;;;;;;;21.26;60.19;99219.75;4994407;27;104222;-67
2022/10/05 09:15:53;;;;;;;5.70;5.20;;;;;;;21.30;59.98;99212.22;5008734;27;102937;-67
2022/10/05 09:18:55;;;;;;;5.25;4.85;;;;;;;21.00;61.03;99210.94;5015888;27;102915;-67
2022/10/05 09:21:40;;;;;;;5.90;5.40;;;;;;;20.87;61.12;99205.19;5004002;27;104303;-67
2022/10/05 09:24:25;;;;;;;5.72;5.13;;;;;;;20.96;61.53;99214.13;5018695;27;103276;-67
2022/10/05 09:27:07;;;;;;;5.82;5.30;;;;;;;21.26;58.48;99210.84;5000800;28;103241;-67
2022/10/05 09:29:59;;;;;;;5.20;4.60;;;;;;;21.90;57.12;99204.66;5002916;28;102725;-68
2022/10/05 09:33:09;;;;;;;5.40;4.87;;;;;;;21.01;60.67;99193.81;4998706;28;103934;-68
2022/10/05 09:36:01;;;;;;;4.80;4.30;;;;;;;21.36;60.76;99198.94;4957304;28;104576;-68
2022/10/05 09:38:43;;;;;;;5.35;4.25;;;;;;;22.33;57.04;99187.22;4959064;28;102878;-67
2022/10/05 09:41:46;;;;;;;7.17;4.40;;;;;;;21.64;58.19;99199.44;5019125;27;103978;-68
2022/10/05 09:44:52;;;;;;;5.27;4.67;;;;;;;21.83;57.15;99190.19;4995260;28;104534;-68
2022/10/05 09:47:51;;;;;;;4.88;4.45;;;;;;;21.19;58.65;99183.78;5005684;27;103412;-69
2022/10/05 09:50:43;;;;;;;4.80;4.30;;;;;;;21.85;57.95;99180.94;5017864;28;102666;-69
2022/10/05 09:53:28;;;;;;;4.73;4.13;;;;;;;22.23;56.44;99179.34;4974154;27;103006;-69
2022/10/05 09:56:20;;;;;;;5.10;4.22;;;;;;;21.92;58.06;99175.75;5010042;27;103503;-69
2022/10/05 09:59:10;;;;;;;6.07;4.10;;;;;;;21.78;56.60;99168.34;5011988;27;103069;-69
2022/10/05 10:01:57;;;;;;;7.47;4.30;;;;;;;22.08;57.00;99164.94;5011423;27;102989;-69
2022/10/05 10:04:48;;;;;;;4.35;3.95;;;;;;;21.95;56.25;99164.66;5026761;27;104004;-68
2022/10/05 10:07:45;;;;;;;4.70;4.00;;;;;;;22.09;55.97;99150.47;5015860;27;104356;-69
2022/10/05 10:10:41;;;;;;;4.60;3.90;;;;;;;22.12;56.01;99155.50;5012946;27;103244;-69
2022/10/05 10:13:24;;;;;;;5.27;3.90;;;;;;;21.97;59.27;99154.56;4990288;27;102850;-69
2022/10/05 10:16:15;;;;;;;9.65;4.57;;;;;;;21.86;57.65;99152.19;5016358;27;102875;-69
2022/10/05 10:19:05;;;;;;;5.55;4.05;;;;;;;22.53;56.21;99142.72;4997309;28;104822;-69
2022/10/05 10:22:05;;;;;;;4.50;3.87;;;;;;;22.07;58.28;99144.41;5016848;27;103259;-69
2022/10/05 10:24:56;;;;;;;5.53;4.20;;;;;;;22.23;57.94;99135.47;5017677;28;102954;-69
2022/10/05 10:27:40;;;;;;;7.85;4.30;;;;;;;22.66;56.38;99136.78;5016716;28;102856;-69
2022/10/05 10:30:33;;;;;;;6.55;4.15;;;;;;;22.80;55.99;99133.34;5016083;27;103747;-69
2022/10/05 10:33:43;;;;;;;5.40;3.90;;;;;;;23.51;56.73;99135.69;5017298;27;103182;-69
2022/10/05 10:36:17;;;;;;;5.80;3.77;;;;;;;23.34;56.23;99129.59;5012982;27;102749;-69
2022/10/05 10:38:58;;;;;;;5.78;3.90;;;;;;;22.93;56.18;99130.91;4999956;28;102738;-69
2022/10/05 10:42:00;;;;;;;4.10;3.33;;;;;;;24.04;54.68;99122.00;5012744;27;104419;-69
2022/10/05 10:45:05;;;;;;;6.13;3.90;;;;;;;23.79;53.57;99122.44;4989897;27;104348;-69
2022/10/05 10:47:51;;;;;;;5.83;3.37;;;;;;;23.83;54.43;99115.69;5014706;27;102663;-69
2022/10/05 10:50:54;;;;;;;4.85;3.75;;;;;;;23.50;53.52;99110.59;4995783;27;103845;-69
2022/10/05 10:53:54;;;;;;;6.55;3.72;;;;;;;23.58;54.35;99102.41;5010093;27;102881;-69
2022/10/05 10:56:50;;;;;;;3.70;3.25;;;;;;;23.70;54.87;99100.13;5008596;27;103216;-69
2022/10/05 10:59:51;;;;;;;5.13;3.10;;;;;;;24.36;53.60;99091.09;5009242;27;102780;-69
2022/10/05 11:02:55;;;;;;;3.58;2.70;;;;;;;24.67;53.26;99091.66;5009386;27;104365;-69
2022/10/05 11:05:31;;;;;;;6.32;2.75;;;;;;;24.03;52.95;99092.47;5010957;27;103783;-70
2022/10/05 11:08:19;;;;;;;3.22;2.92;;;;;;;24.67;53.47;99083.56;5010338;27;103280;-69
2022/10/05 11:11:09;;;;;;;2.80;2.50;;;;;;;25.00;51.99;99075.84;5015041;27;103259;-69
2022/10/05 11:14:01;;;;;;;3.00;2.27;;;;;;;25.42;50.62;99077.66;5000310;28;103666;-70
2022/10/05 11:17:03;;;;;;;2.45;2.20;;;;;;;25.62;50.24;99070.56;5013089;28;103371;-70
2022/10/05 11:19:51;;;;;;;3.63;2.20;;;;;;;25.06;51.63;99074.22;5012269;28;103421;-69
2022/10/05 11:22:56;;;;;;;2.90;2.33;;;;;;;24.76;52.08;99060.78;4998237;28;102763;-69
2022/10/05 11:25:50;;;;;;;2.33;2.10;;;;;;;25.48;49.72;99059.84;5009442;27;103975;-70
2022/10/05 11:29:05;;;;;;;4.55;2.45;;;;;;;25.50;50.70;99053.19;5010102;27;103384;-69
2022/10/05 11:31:58;;;;;;;3.92;2.50;;;;;;;25.29;50.08;99050.53;4949568;27;104333;-70
2022/10/05 11:35:18;;;;;;;4.03;2.45;;;;;;;25.90;50.33;99049.72;5008115;27;103055;-70
2022/10/05 11:38:03;;;;;;;3.70;2.57;;;;;;;26.01;49.81;99044.75;4910912;28;103999;-70
2022/10/05 11:41:05;;;;;;;3.22;2.50;;;;;;;26.64;48.91;99036.25;4911687;28;103804;-70
2022/10/05 11:44:06;;;;;;;5.00;2.40;;;;;;;25.92;49.43;99035.97;5005425;27;104410;-70
2022/10/05 11:46:47;;;;;;;3.30;2.20;;;;;;;24.72;51.45;99035.22;5002221;27;102916;-69
2022/10/05 11:49:27;;;;;;;3.88;2.63;;;;;;;25.96;50.20;99033.69;5012378;27;104148;-69
2022/10/05 11:52:06;;;;;;;3.80;2.20;;;;;;;26.45;49.06;99026.22;5012478;27;104004;-69
2022/10/05 11:55:04;;;;;;;4.47;2.28;;;;;;;24.20;52.87;99030.06;5014591;27;103459;-69
2022/10/05 11:57:49;;;;;;;3.73;2.10;;;;;;;25.97;50.83;99021.81;5013863;27;102993;-69
2022/10/05 12:00:19;;;;;;;2.90;2.10;;;;;;;26.52;48.12;99015.41;4997191;27;103068;-69
2022/10/05 12:02:59;;;;;;;5.47;2.03;;;;;;;26.08;49.43;99010.44;5012114;27;103402;-69
2022/10/05 12:05:37;;;;;;;1.63;1.50;;;;;;;26.24;47.89;99007.41;4994770;27;103196;-68
2022/10/05 12:08:22;;;;;;;4.07;1.75;;;;;;;26.21;48.14;99019.47;5014796;27;103451;-68
2022/10/05 12:11:02;;;;;;;3.13;1.50;;;;;;;26.56;47.97;99006.66;5012037;27;102859;-68
2022/10/05 12:13:39;;;;;;;3.38;1.60;;;;;;;26.45;47.12;99009.97;4992598;27;104083;-68
2022/10/05 12:16:15;;;;;;;2.60;1.40;;;;;;;26.51;46.92;99011.84;5014830;27;103367;-69
2022/10/05 12:18:54;;;;;;;4.20;1.52;;;;;;;26.83;47.03;99003.00;5018997;27;102722;-69
2022/10/05 12:21:31;;;;;;;3.03;1.40;;;;;;;26.56;47.49;99011.22;5015847;27;103421;-69
2022/10/05 12:24:04;;;;;;;2.15;1.48;;;;;;;27.00;46.88;99003.41;5023696;27;103369;-69
2022/10/05 12:26:36;;;;;;;4.13;1.60;;;;;;;26.94;47.16;99009.66;5013054;27;103129;-70
2022/10/05 12:29:13;;;;;;;1.90;1.50;;;;;;;27.18;46.24;99000.06;5015264;27;102731;-69
2022/10/05 12:31:50;;;;;;;2.55;1.60;;;;;;;27.17;46.20;98998.41;5011417;27;104354;-69
2022/10/05 12:34:34;;;;;;;2.53;1.50;;;;;;;26.77;47.33;98990.22;5011804;27;104007;-69